sensor_id;sensor_type;location;lat;lon;timestamp;temperature;humidity
3478;DHT22;37937;61.490;23.506;2022-11-03T00:02:21;5.80;99.90
3478;DHT22;37937;61.490;23.506;2022-11-03T00:04:46;5.80;99.90
3478;DHT22;37937;61.490;23.506;2022-11-03T00:07:12;5.90;99.90
3478;DHT22;37937;61.490;23.506;2022-11-03T00:09:43;5.90;99.90
3478;DHT22;37937;61.490;23.506;2022-11-03T00:12:09;5.90;99.90
3478;DHT22;37937;61.490;23.506;2022-11-03T00:14:35;5.90;99.90
3478;DHT22;37937;61.490;23.506;2022-11-03T00:17:01;5.80;99.90
3478;DHT22;37937;61.490;23.506;2022-11-03T00:19:26;5.80;99.90
3478;DHT22;37937;61.490;23.506;2022-11-03T00:21:52;5.80;99.90
3478;DHT22;37937;61.490;23.506;2022-11-03T00:24:18;5.80;99.90
3478;DHT22;37937;61.490;23.506;2022-11-03T00:26:44;5.80;99.90
3478;DHT22;37937;61.490;23.506;2022-11-03T00:29:10;5.80;99.90
3478;DHT22;37937;61.490;23.506;2022-11-03T00:31:37;5.80;99.90
3478;DHT22;37937;61.490;23.506;2022-11-03T00:34:04;5.80;99.90
3478;DHT22;37937;61.490;23.506;2022-11-03T00:36:30;5.80;99.90
3478;DHT22;37937;61.490;23.506;2022-11-03T00:38:56;5.80;99.90
3478;DHT22;37937;61.490;23.506;2022-11-03T00:41:22;5.80;99.90
3478;DHT22;37937;61.490;23.506;2022-11-03T00:43:49;5.80;99.90
3478;DHT22;37937;61.490;23.506;2022-11-03T00:46:15;5.80;99.90
3478;DHT22;37937;61.490;23.506;2022-11-03T00:48:41;5.80;99.90
3478;DHT22;37937;61.490;23.506;2022-11-03T00:51:11;5.80;99.90
3478;DHT22;37937;61.490;23.506;2022-11-03T00:53:37;5.70;99.90
3478;DHT22;37937;61.490;23.506;2022-11-03T00:56:04;5.80;99.90
3478;DHT22;37937;61.490;23.506;2022-11-03T00:58:30;5.80;99.90
3478;DHT22;37937;61.490;23.506;2022-11-03T01:00:57;5.80;99.90
3478;DHT22;37937;61.490;23.506;2022-11-03T01:03:23;5.80;99.90
3478;DHT22;37937;61.490;23.506;2022-11-03T01:05:50;5.80;99.90
3478;DHT22;37937;61.490;23.506;2022-11-03T01:08:35;5.80;99.90
3478;DHT22;37937;61.490;23.506;2022-11-03T01:11:11;5.80;99.90
3478;DHT22;37937;61.490;23.506;2022-11-03T01:13:56;5.80;99.90
3478;DHT22;37937;61.490;23.506;2022-11-03T01:16:22;5.80;99.90
3478;DHT22;37937;61.490;23.506;2022-11-03T01:18:48;5.80;99.90
3478;DHT22;37937;61.490;23.506;2022-11-03T01:21:15;5.80;99.90
3478;DHT22;37937;61.490;23.506;2022-11-03T01:23:47;5.70;99.90
3478;DHT22;37937;61.490;23.506;2022-11-03T01:26:13;5.70;99.90
3478;DHT22;37937;61.490;23.506;2022-11-03T01:28:41;5.80;99.90
3478;DHT22;37937;61.490;23.506;2022-11-03T01:31:09;5.70;99.90
3478;DHT22;37937;61.490;23.506;2022-11-03T01:33:36;5.70;99.90
3478;DHT22;37937;61.490;23.506;2022-11-03T01:36:02;5.70;99.90
3478;DHT22;37937;61.490;23.506;2022-11-03T01:38:31;5.70;99.90
3478;DHT22;37937;61.490;23.506;2022-11-03T01:40:57;5.70;99.90
3478;DHT22;37937;61.490;23.506;2022-11-03T01:43:23;5.70;99.90
3478;DHT22;37937;61.490;23.506;2022-11-03T01:45:52;5.70;99.90
3478;DHT22;37937;61.490;23.506;2022-11-03T01:48:21;5.70;99.90
3478;DHT22;37937;61.490;23.506;2022-11-03T01:50:47;5.70;99.90
3478;DHT22;37937;61.490;23.506;2022-11-03T01:53:13;5.70;99.90
3478;DHT22;37937;61.490;23.506;2022-11-03T01:55:39;5.70;99.90
3478;DHT22;37937;61.490;23.506;2022-11-03T01:58:09;5.70;99.90
3478;DHT22;37937;61.490;23.506;2022-11-03T02:00:37;5.70;99.90
3478;DHT22;37937;61.490;23.506;2022-11-03T02:03:05;5.80;99.90
3478;DHT22;37937;61.490;23.506;2022-11-03T02:05:31;5.80;99.90
3478;DHT22;37937;61.490;23.506;2022-11-03T02:07:59;5.80;99.90
3478;DHT22;37937;61.490;23.506;2022-11-03T02:10:27;5.80;99.90
3478;DHT22;37937;61.490;23.506;2022-11-03T02:12:53;5.80;99.90
3478;DHT22;37937;61.490;23.506;2022-11-03T02:15:20;5.70;99.90
3478;DHT22;37937;61.490;23.506;2022-11-03T02:17:46;5.80;99.90
3478;DHT22;37937;61.490;23.506;2022-11-03T02:20:16;5.80;99.90
3478;DHT22;37937;61.490;23.506;2022-11-03T02:28:11;5.70;99.90
3478;DHT22;37937;61.490;23.506;2022-11-03T02:30:42;5.70;99.90
3478;DHT22;37937;61.490;23.506;2022-11-03T02:35:46;5.70;99.90
3478;DHT22;37937;61.490;23.506;2022-11-03T02:38:15;5.70;99.90
3478;DHT22;37937;61.490;23.506;2022-11-03T02:40:45;5.70;99.90
3478;DHT22;37937;61.490;23.506;2022-11-03T02:43:13;5.70;99.90
3478;DHT22;37937;61.490;23.506;2022-11-03T02:45:40;5.70;99.90
3478;DHT22;37937;61.490;23.506;2022-11-03T02:48:08;5.70;99.90
3478;DHT22;37937;61.490;23.506;2022-11-03T02:50:34;5.70;99.90
3478;DHT22;37937;61.490;23.506;2022-11-03T02:53:01;5.70;99.90
3478;DHT22;37937;61.490;23.506;2022-11-03T02:58:18;5.70;99.90
3478;DHT22;37937;61.490;23.506;2022-11-03T03:01:06;5.70;99.90
3478;DHT22;37937;61.490;23.506;2022-11-03T03:04:01;5.80;99.90
3478;DHT22;37937;61.490;23.506;2022-11-03T03:06:27;5.70;99.90
3478;DHT22;37937;61.490;23.506;2022-11-03T03:08:58;5.70;99.90
3478;DHT22;37937;61.490;23.506;2022-11-03T03:11:25;5.70;99.90
3478;DHT22;37937;61.490;23.506;2022-11-03T03:14:24;5.80;99.90
3478;DHT22;37937;61.490;23.506;2022-11-03T03:16:50;5.70;99.90
3478;DHT22;37937;61.490;23.506;2022-11-03T03:19:25;5.70;99.90
3478;DHT22;37937;61.490;23.506;2022-11-03T03:21:53;5.70;99.90
3478;DHT22;37937;61.490;23.506;2022-11-03T03:24:27;5.80;99.90
3478;DHT22;37937;61.490;23.506;2022-11-03T03:26:55;5.70;99.90
3478;DHT22;37937;61.490;23.506;2022-11-03T03:29:27;5.70;99.90
3478;DHT22;37937;61.490;23.506;2022-11-03T03:31:54;5.80;99.90
3478;DHT22;37937;61.490;23.506;2022-11-03T03:34:22;5.80;99.90
3478;DHT22;37937;61.490;23.506;2022-11-03T03:36:49;5.70;99.90
3478;DHT22;37937;61.490;23.506;2022-11-03T03:39:15;5.80;99.90
3478;DHT22;37937;61.490;23.506;2022-11-03T03:41:43;5.80;99.90
3478;DHT22;37937;61.490;23.506;2022-11-03T03:44:09;5.80;99.90
3478;DHT22;37937;61.490;23.506;2022-11-03T03:46:47;5.70;99.90
3478;DHT22;37937;61.490;23.506;2022-11-03T03:49:14;5.70;99.90
3478;DHT22;37937;61.490;23.506;2022-11-03T03:51:39;5.70;99.90
3478;DHT22;37937;61.490;23.506;2022-11-03T03:54:06;5.70;99.90
3478;DHT22;37937;61.490;23.506;2022-11-03T03:56:52;5.70;99.90
3478;DHT22;37937;61.490;23.506;2022-11-03T03:59:20;5.70;99.90
3478;DHT22;37937;61.490;23.506;2022-11-03T04:01:46;5.70;99.90
3478;DHT22;37937;61.490;23.506;2022-11-03T04:04:12;5.70;99.90
3478;DHT22;37937;61.490;23.506;2022-11-03T04:06:38;5.70;99.90
3478;DHT22;37937;61.490;23.506;2022-11-03T04:09:04;5.70;99.90
3478;DHT22;37937;61.490;23.506;2022-11-03T04:11:30;5.70;99.90
3478;DHT22;37937;61.490;23.506;2022-11-03T04:14:14;5.70;99.90
3478;DHT22;37937;61.490;23.506;2022-11-03T04:16:58;5.70;99.90
3478;DHT22;37937;61.490;23.506;2022-11-03T04:19:43;5.70;99.90
3478;DHT22;37937;61.490;23.506;2022-11-03T04:22:28;5.70;99.90
3478;DHT22;37937;61.490;23.506;2022-11-03T04:24:55;5.70;99.90
3478;DHT22;37937;61.490;23.506;2022-11-03T04:27:29;5.70;99.90
3478;DHT22;37937;61.490;23.506;2022-11-03T04:29:59;5.70;99.90
3478;DHT22;37937;61.490;23.506;2022-11-03T04:32:27;5.80;99.90
3478;DHT22;37937;61.490;23.506;2022-11-03T04:34:53;5.70;99.90
3478;DHT22;37937;61.490;23.506;2022-11-03T04:37:19;5.70;99.90
3478;DHT22;37937;61.490;23.506;2022-11-03T04:39:44;5.70;99.90
3478;DHT22;37937;61.490;23.506;2022-11-03T04:42:20;5.70;99.90
3478;DHT22;37937;61.490;23.506;2022-11-03T04:44:46;5.70;99.90
3478;DHT22;37937;61.490;23.506;2022-11-03T04:47:12;5.80;99.90
3478;DHT22;37937;61.490;23.506;2022-11-03T04:49:38;5.80;99.90
3478;DHT22;37937;61.490;23.506;2022-11-03T04:52:07;5.80;99.90
3478;DHT22;37937;61.490;23.506;2022-11-03T04:54:36;5.80;99.90
3478;DHT22;37937;61.490;23.506;2022-11-03T04:57:04;5.80;99.90
3478;DHT22;37937;61.490;23.506;2022-11-03T04:59:33;5.70;99.90
3478;DHT22;37937;61.490;23.506;2022-11-03T05:01:59;5.80;99.90
3478;DHT22;37937;61.490;23.506;2022-11-03T05:04:26;5.80;99.90
3478;DHT22;37937;61.490;23.506;2022-11-03T05:06:53;5.80;99.90
3478;DHT22;37937;61.490;23.506;2022-11-03T05:09:23;5.70;99.90
3478;DHT22;37937;61.490;23.506;2022-11-03T05:11:51;5.80;99.90
3478;DHT22;37937;61.490;23.506;2022-11-03T05:16:45;5.80;99.90
3478;DHT22;37937;61.490;23.506;2022-11-03T05:19:13;5.80;99.90
3478;DHT22;37937;61.490;23.506;2022-11-03T05:21:40;5.80;99.90
3478;DHT22;37937;61.490;23.506;2022-11-03T05:24:09;5.80;99.90
3478;DHT22;37937;61.490;23.506;2022-11-03T05:26:35;5.80;99.90
3478;DHT22;37937;61.490;23.506;2022-11-03T05:29:02;5.80;99.90
3478;DHT22;37937;61.490;23.506;2022-11-03T05:31:29;5.80;99.90
3478;DHT22;37937;61.490;23.506;2022-11-03T05:33:56;5.80;99.90
3478;DHT22;37937;61.490;23.506;2022-11-03T05:36:23;5.80;99.90
3478;DHT22;37937;61.490;23.506;2022-11-03T05:38:50;5.90;99.90
3478;DHT22;37937;61.490;23.506;2022-11-03T05:41:23;5.90;99.90
3478;DHT22;37937;61.490;23.506;2022-11-03T05:43:56;5.80;99.90
3478;DHT22;37937;61.490;23.506;2022-11-03T05:46:24;5.80;99.90
3478;DHT22;37937;61.490;23.506;2022-11-03T05:48:51;5.90;99.90
3478;DHT22;37937;61.490;23.506;2022-11-03T05:51:21;5.90;99.90
3478;DHT22;37937;61.490;23.506;2022-11-03T05:53:54;5.80;99.90
3478;DHT22;37937;61.490;23.506;2022-11-03T05:56:23;5.90;99.90
3478;DHT22;37937;61.490;23.506;2022-11-03T05:58:49;5.80;99.90
3478;DHT22;37937;61.490;23.506;2022-11-03T06:01:18;5.80;99.90
3478;DHT22;37937;61.490;23.506;2022-11-03T06:03:44;5.90;99.90
3478;DHT22;37937;61.490;23.506;2022-11-03T06:06:32;5.90;99.90
3478;DHT22;37937;61.490;23.506;2022-11-03T06:08:56;5.90;99.90
3478;DHT22;37937;61.490;23.506;2022-11-03T06:11:26;5.90;99.90
3478;DHT22;37937;61.490;23.506;2022-11-03T06:13:54;5.90;99.90
3478;DHT22;37937;61.490;23.506;2022-11-03T06:18:46;5.90;99.90
3478;DHT22;37937;61.490;23.506;2022-11-03T06:21:12;5.90;99.90
3478;DHT22;37937;61.490;23.506;2022-11-03T06:23:40;5.90;99.90
3478;DHT22;37937;61.490;23.506;2022-11-03T06:26:11;5.90;99.90
3478;DHT22;37937;61.490;23.506;2022-11-03T06:28:38;5.90;99.90
3478;DHT22;37937;61.490;23.506;2022-11-03T06:31:05;5.90;99.90
3478;DHT22;37937;61.490;23.506;2022-11-03T06:33:38;5.90;99.90
3478;DHT22;37937;61.490;23.506;2022-11-03T06:36:15;5.90;99.90
3478;DHT22;37937;61.490;23.506;2022-11-03T06:38:43;5.90;99.90
3478;DHT22;37937;61.490;23.506;2022-11-03T06:41:17;5.90;99.90
3478;DHT22;37937;61.490;23.506;2022-11-03T06:43:45;5.90;99.90
3478;DHT22;37937;61.490;23.506;2022-11-03T06:46:17;5.90;99.90
3478;DHT22;37937;61.490;23.506;2022-11-03T06:48:43;5.90;99.90
3478;DHT22;37937;61.490;23.506;2022-11-03T06:51:17;6.00;99.90
3478;DHT22;37937;61.490;23.506;2022-11-03T06:53:44;6.00;99.90
3478;DHT22;37937;61.490;23.506;2022-11-03T06:56:11;6.00;99.90
3478;DHT22;37937;61.490;23.506;2022-11-03T06:58:38;6.00;99.90
3478;DHT22;37937;61.490;23.506;2022-11-03T07:01:09;6.00;99.90
3478;DHT22;37937;61.490;23.506;2022-11-03T07:03:37;6.00;99.90
3478;DHT22;37937;61.490;23.506;2022-11-03T07:08:36;6.00;99.90
3478;DHT22;37937;61.490;23.506;2022-11-03T07:11:13;6.00;99.90
3478;DHT22;37937;61.490;23.506;2022-11-03T07:13:40;6.00;99.90
3478;DHT22;37937;61.490;23.506;2022-11-03T07:16:13;6.00;99.90
3478;DHT22;37937;61.490;23.506;2022-11-03T07:18:40;6.00;99.90
3478;DHT22;37937;61.490;23.506;2022-11-03T07:23:51;6.10;99.90
3478;DHT22;37937;61.490;23.506;2022-11-03T07:26:17;6.00;99.90
3478;DHT22;37937;61.490;23.506;2022-11-03T07:28:43;6.00;99.90
3478;DHT22;37937;61.490;23.506;2022-11-03T07:31:15;6.10;99.90
3478;DHT22;37937;61.490;23.506;2022-11-03T07:33:43;6.00;99.90
3478;DHT22;37937;61.490;23.506;2022-11-03T07:36:09;6.10;99.90
3478;DHT22;37937;61.490;23.506;2022-11-03T07:38:38;6.10;99.90
3478;DHT22;37937;61.490;23.506;2022-11-03T07:41:03;6.00;99.90
3478;DHT22;37937;61.490;23.506;2022-11-03T07:43:33;6.10;99.90
3478;DHT22;37937;61.490;23.506;2022-11-03T07:46:00;6.10;99.90
3478;DHT22;37937;61.490;23.506;2022-11-03T07:48:33;6.10;99.90
3478;DHT22;37937;61.490;23.506;2022-11-03T07:51:05;6.10;99.90
3478;DHT22;37937;61.490;23.506;2022-11-03T07:56:20;6.10;99.90
3478;DHT22;37937;61.490;23.506;2022-11-03T07:58:46;6.10;99.90
3478;DHT22;37937;61.490;23.506;2022-11-03T08:03:43;6.10;99.90
3478;DHT22;37937;61.490;23.506;2022-11-03T08:06:10;6.10;99.90
3478;DHT22;37937;61.490;23.506;2022-11-03T08:08:36;6.10;99.90
3478;DHT22;37937;61.490;23.506;2022-11-03T08:11:02;6.10;99.90
3478;DHT22;37937;61.490;23.506;2022-11-03T08:13:27;6.10;99.90
3478;DHT22;37937;61.490;23.506;2022-11-03T08:15:53;6.10;99.90
3478;DHT22;37937;61.490;23.506;2022-11-03T08:18:19;6.10;99.90
3478;DHT22;37937;61.490;23.506;2022-11-03T08:20:44;6.10;99.90
3478;DHT22;37937;61.490;23.506;2022-11-03T08:23:10;6.20;99.90
3478;DHT22;37937;61.490;23.506;2022-11-03T08:25:36;6.20;99.90
3478;DHT22;37937;61.490;23.506;2022-11-03T08:28:02;6.10;99.90
3478;DHT22;37937;61.490;23.506;2022-11-03T08:30:28;6.10;99.90
3478;DHT22;37937;61.490;23.506;2022-11-03T08:32:54;6.20;99.90
3478;DHT22;37937;61.490;23.506;2022-11-03T08:35:20;6.20;99.90
3478;DHT22;37937;61.490;23.506;2022-11-03T08:37:45;6.10;99.90
3478;DHT22;37937;61.490;23.506;2022-11-03T08:40:11;6.10;99.90
3478;DHT22;37937;61.490;23.506;2022-11-03T08:42:37;6.10;99.90
3478;DHT22;37937;61.490;23.506;2022-11-03T08:45:03;6.10;99.90
3478;DHT22;37937;61.490;23.506;2022-11-03T08:47:29;6.20;99.90
3478;DHT22;37937;61.490;23.506;2022-11-03T08:49:54;6.20;99.90
3478;DHT22;37937;61.490;23.506;2022-11-03T08:52:20;6.20;99.90
3478;DHT22;37937;61.490;23.506;2022-11-03T08:54:46;6.20;99.90
3478;DHT22;37937;61.490;23.506;2022-11-03T08:57:11;6.20;99.90
3478;DHT22;37937;61.490;23.506;2022-11-03T08:59:37;6.20;99.90
3478;DHT22;37937;61.490;23.506;2022-11-03T09:02:03;6.20;99.90
3478;DHT22;37937;61.490;23.506;2022-11-03T09:04:29;6.20;99.90
3478;DHT22;37937;61.490;23.506;2022-11-03T09:06:54;6.20;99.90
3478;DHT22;37937;61.490;23.506;2022-11-03T09:09:20;6.30;99.90
3478;DHT22;37937;61.490;23.506;2022-11-03T09:11:46;6.20;99.90
3478;DHT22;37937;61.490;23.506;2022-11-03T09:14:12;6.30;99.90
3478;DHT22;37937;61.490;23.506;2022-11-03T09:16:38;6.30;99.90
3478;DHT22;37937;61.490;23.506;2022-11-03T09:19:03;6.30;99.90
3478;DHT22;37937;61.490;23.506;2022-11-03T09:21:29;6.30;99.90
3478;DHT22;37937;61.490;23.506;2022-11-03T09:23:55;6.30;99.90
3478;DHT22;37937;61.490;23.506;2022-11-03T09:26:23;6.20;99.90
3478;DHT22;37937;61.490;23.506;2022-11-03T09:28:49;6.30;99.90
3478;DHT22;37937;61.490;23.506;2022-11-03T09:31:15;6.30;99.90
3478;DHT22;37937;61.490;23.506;2022-11-03T09:33:41;6.20;99.90
3478;DHT22;37937;61.490;23.506;2022-11-03T09:36:07;6.30;99.90
3478;DHT22;37937;61.490;23.506;2022-11-03T09:38:32;6.20;99.90
3478;DHT22;37937;61.490;23.506;2022-11-03T09:40:58;6.30;99.90
3478;DHT22;37937;61.490;23.506;2022-11-03T09:43:24;6.30;99.90
3478;DHT22;37937;61.490;23.506;2022-11-03T09:45:49;6.30;99.90
3478;DHT22;37937;61.490;23.506;2022-11-03T09:48:15;6.40;99.90
3478;DHT22;37937;61.490;23.506;2022-11-03T09:50:41;6.40;99.90
3478;DHT22;37937;61.490;23.506;2022-11-03T09:53:10;6.40;99.90
3478;DHT22;37937;61.490;23.506;2022-11-03T09:55:36;6.40;99.90
3478;DHT22;37937;61.490;23.506;2022-11-03T09:58:11;6.40;99.90
3478;DHT22;37937;61.490;23.506;2022-11-03T10:00:38;6.40;99.90
3478;DHT22;37937;61.490;23.506;2022-11-03T10:03:04;6.30;99.90
3478;DHT22;37937;61.490;23.506;2022-11-03T10:05:29;6.40;99.90
3478;DHT22;37937;61.490;23.506;2022-11-03T10:07:56;6.50;99.90
3478;DHT22;37937;61.490;23.506;2022-11-03T10:10:23;6.50;99.90
3478;DHT22;37937;61.490;23.506;2022-11-03T10:12:49;6.50;99.90
3478;DHT22;37937;61.490;23.506;2022-11-03T10:15:18;6.50;99.90
3478;DHT22;37937;61.490;23.506;2022-11-03T10:17:44;6.50;99.90
3478;DHT22;37937;61.490;23.506;2022-11-03T10:20:13;6.60;99.90
3478;DHT22;37937;61.490;23.506;2022-11-03T10:22:39;6.60;99.90
3478;DHT22;37937;61.490;23.506;2022-11-03T10:25:27;6.50;99.90
3478;DHT22;37937;61.490;23.506;2022-11-03T10:28:13;6.60;99.90
3478;DHT22;37937;61.490;23.506;2022-11-03T10:33:23;6.60;99.90
3478;DHT22;37937;61.490;23.506;2022-11-03T10:35:49;6.60;99.90
3478;DHT22;37937;61.490;23.506;2022-11-03T10:38:25;6.60;99.90
3478;DHT22;37937;61.490;23.506;2022-11-03T10:40:55;6.70;99.90
3478;DHT22;37937;61.490;23.506;2022-11-03T10:43:21;6.60;99.90
3478;DHT22;37937;61.490;23.506;2022-11-03T10:45:47;6.70;99.90
3478;DHT22;37937;61.490;23.506;2022-11-03T10:48:14;6.70;99.90
3478;DHT22;37937;61.490;23.506;2022-11-03T10:50:40;6.70;99.90
3478;DHT22;37937;61.490;23.506;2022-11-03T10:53:16;6.70;99.90
3478;DHT22;37937;61.490;23.506;2022-11-03T10:55:42;6.60;99.90
3478;DHT22;37937;61.490;23.506;2022-11-03T10:58:08;6.70;99.90
3478;DHT22;37937;61.490;23.506;2022-11-03T11:00:34;6.70;99.90
3478;DHT22;37937;61.490;23.506;2022-11-03T11:03:00;6.80;99.90
3478;DHT22;37937;61.490;23.506;2022-11-03T11:05:26;6.80;99.90
3478;DHT22;37937;61.490;23.506;2022-11-03T11:07:52;6.70;99.90
3478;DHT22;37937;61.490;23.506;2022-11-03T11:10:19;6.70;99.90
3478;DHT22;37937;61.490;23.506;2022-11-03T11:13:02;6.80;99.90
3478;DHT22;37937;61.490;23.506;2022-11-03T11:15:41;6.70;99.90
3478;DHT22;37937;61.490;23.506;2022-11-03T11:18:07;6.80;99.90
3478;DHT22;37937;61.490;23.506;2022-11-03T11:20:37;6.80;99.90
3478;DHT22;37937;61.490;23.506;2022-11-03T11:28:32;6.70;99.90
3478;DHT22;37937;61.490;23.506;2022-11-03T11:30:57;6.80;99.90
3478;DHT22;37937;61.490;23.506;2022-11-03T11:33:24;6.80;99.90
3478;DHT22;37937;61.490;23.506;2022-11-03T11:41:00;6.80;99.90
3478;DHT22;37937;61.490;23.506;2022-11-03T11:43:26;6.80;99.90
3478;DHT22;37937;61.490;23.506;2022-11-03T11:48:36;6.90;99.90
3478;DHT22;37937;61.490;23.506;2022-11-03T11:51:02;6.80;99.90
3478;DHT22;37937;61.490;23.506;2022-11-03T11:53:30;6.80;99.90
3478;DHT22;37937;61.490;23.506;2022-11-03T11:55:58;6.80;99.90
3478;DHT22;37937;61.490;23.506;2022-11-03T11:58:28;6.90;99.90
3478;DHT22;37937;61.490;23.506;2022-11-03T12:00:57;6.90;99.90
3478;DHT22;37937;61.490;23.506;2022-11-03T12:03:31;6.90;99.90
3478;DHT22;37937;61.490;23.506;2022-11-03T12:05:58;6.90;99.90
3478;DHT22;37937;61.490;23.506;2022-11-03T12:08:24;6.80;99.90
3478;DHT22;37937;61.490;23.506;2022-11-03T12:10:51;6.80;99.90
3478;DHT22;37937;61.490;23.506;2022-11-03T12:14:02;6.80;99.90
3478;DHT22;37937;61.490;23.506;2022-11-03T12:16:03;6.80;99.90
3478;DHT22;37937;61.490;23.506;2022-11-03T12:20:58;6.80;99.90
3478;DHT22;37937;61.490;23.506;2022-11-03T12:25:57;6.80;99.90
3478;DHT22;37937;61.490;23.506;2022-11-03T12:28:35;6.80;99.90
3478;DHT22;37937;61.490;23.506;2022-11-03T12:31:02;6.90;99.90
3478;DHT22;37937;61.490;23.506;2022-11-03T12:33:28;6.90;99.90
3478;DHT22;37937;61.490;23.506;2022-11-03T12:35:54;6.90;99.90
3478;DHT22;37937;61.490;23.506;2022-11-03T12:38:20;6.90;99.90
3478;DHT22;37937;61.490;23.506;2022-11-03T12:40:46;7.00;99.90
3478;DHT22;37937;61.490;23.506;2022-11-03T12:43:11;6.90;99.90
3478;DHT22;37937;61.490;23.506;2022-11-03T12:45:37;6.90;99.90
3478;DHT22;37937;61.490;23.506;2022-11-03T12:48:03;6.90;99.90
3478;DHT22;37937;61.490;23.506;2022-11-03T12:50:30;7.00;99.90
3478;DHT22;37937;61.490;23.506;2022-11-03T12:52:56;7.00;99.90
3478;DHT22;37937;61.490;23.506;2022-11-03T12:55:21;6.90;99.90
3478;DHT22;37937;61.490;23.506;2022-11-03T12:57:47;6.90;99.90
3478;DHT22;37937;61.490;23.506;2022-11-03T13:00:13;6.90;99.90
3478;DHT22;37937;61.490;23.506;2022-11-03T13:02:39;6.90;99.90
3478;DHT22;37937;61.490;23.506;2022-11-03T13:05:04;6.90;99.90
3478;DHT22;37937;61.490;23.506;2022-11-03T13:07:31;6.90;99.90
3478;DHT22;37937;61.490;23.506;2022-11-03T13:09:57;6.90;99.90
3478;DHT22;37937;61.490;23.506;2022-11-03T13:12:23;6.90;99.90
3478;DHT22;37937;61.490;23.506;2022-11-03T13:15:00;6.90;99.90
3478;DHT22;37937;61.490;23.506;2022-11-03T13:17:26;6.80;99.90
3478;DHT22;37937;61.490;23.506;2022-11-03T13:19:52;6.80;99.90
3478;DHT22;37937;61.490;23.506;2022-11-03T13:22:17;6.80;99.90
3478;DHT22;37937;61.490;23.506;2022-11-03T13:24:43;6.80;99.90
3478;DHT22;37937;61.490;23.506;2022-11-03T13:27:09;6.80;99.90
3478;DHT22;37937;61.490;23.506;2022-11-03T13:29:35;6.80;99.90
3478;DHT22;37937;61.490;23.506;2022-11-03T13:32:01;6.80;99.90
3478;DHT22;37937;61.490;23.506;2022-11-03T13:34:28;6.80;99.90
3478;DHT22;37937;61.490;23.506;2022-11-03T13:36:53;6.80;99.90
3478;DHT22;37937;61.490;23.506;2022-11-03T13:39:19;6.80;99.90
3478;DHT22;37937;61.490;23.506;2022-11-03T13:41:45;6.90;99.90
3478;DHT22;37937;61.490;23.506;2022-11-03T13:44:11;6.90;99.90
3478;DHT22;37937;61.490;23.506;2022-11-03T13:46:37;6.90;99.90
3478;DHT22;37937;61.490;23.506;2022-11-03T13:49:02;6.80;99.90
3478;DHT22;37937;61.490;23.506;2022-11-03T13:51:28;6.80;99.90
3478;DHT22;37937;61.490;23.506;2022-11-03T13:53:54;6.90;99.90
3478;DHT22;37937;61.490;23.506;2022-11-03T13:56:19;6.80;99.90
3478;DHT22;37937;61.490;23.506;2022-11-03T13:58:45;6.80;99.90
3478;DHT22;37937;61.490;23.506;2022-11-03T14:01:11;6.80;99.90
3478;DHT22;37937;61.490;23.506;2022-11-03T14:03:37;6.80;99.90
3478;DHT22;37937;61.490;23.506;2022-11-03T14:06:02;6.80;99.90
3478;DHT22;37937;61.490;23.506;2022-11-03T14:08:28;6.80;99.90
3478;DHT22;37937;61.490;23.506;2022-11-03T14:10:54;6.70;99.90
3478;DHT22;37937;61.490;23.506;2022-11-03T14:13:19;6.80;99.90
3478;DHT22;37937;61.490;23.506;2022-11-03T14:15:45;6.80;99.90
3478;DHT22;37937;61.490;23.506;2022-11-03T14:18:11;6.80;99.90
3478;DHT22;37937;61.490;23.506;2022-11-03T14:20:36;6.80;99.90
3478;DHT22;37937;61.490;23.506;2022-11-03T14:23:02;6.80;99.90
3478;DHT22;37937;61.490;23.506;2022-11-03T14:25:27;6.80;99.90
3478;DHT22;37937;61.490;23.506;2022-11-03T14:27:53;6.80;99.90
3478;DHT22;37937;61.490;23.506;2022-11-03T14:30:19;6.80;99.90
3478;DHT22;37937;61.490;23.506;2022-11-03T14:32:45;6.80;99.90
3478;DHT22;37937;61.490;23.506;2022-11-03T14:35:11;6.80;99.90
3478;DHT22;37937;61.490;23.506;2022-11-03T14:37:36;6.80;99.90
3478;DHT22;37937;61.490;23.506;2022-11-03T14:40:03;6.80;99.90
3478;DHT22;37937;61.490;23.506;2022-11-03T14:42:29;6.80;99.90
3478;DHT22;37937;61.490;23.506;2022-11-03T14:44:54;6.70;99.90
3478;DHT22;37937;61.490;23.506;2022-11-03T14:47:20;6.70;99.90
3478;DHT22;37937;61.490;23.506;2022-11-03T14:49:46;6.70;99.90
3478;DHT22;37937;61.490;23.506;2022-11-03T14:52:13;6.80;99.90
3478;DHT22;37937;61.490;23.506;2022-11-03T14:54:39;6.70;99.90
3478;DHT22;37937;61.490;23.506;2022-11-03T14:57:04;6.80;99.90
3478;DHT22;37937;61.490;23.506;2022-11-03T14:59:30;6.80;99.90
3478;DHT22;37937;61.490;23.506;2022-11-03T15:01:56;6.80;99.90
3478;DHT22;37937;61.490;23.506;2022-11-03T15:04:22;6.80;99.90
3478;DHT22;37937;61.490;23.506;2022-11-03T15:06:48;6.70;99.90
3478;DHT22;37937;61.490;23.506;2022-11-03T15:09:14;6.70;99.90
3478;DHT22;37937;61.490;23.506;2022-11-03T15:11:40;6.80;99.90
3478;DHT22;37937;61.490;23.506;2022-11-03T15:14:06;6.80;99.90
3478;DHT22;37937;61.490;23.506;2022-11-03T15:16:32;6.70;99.90
3478;DHT22;37937;61.490;23.506;2022-11-03T15:18:58;6.70;99.90
3478;DHT22;37937;61.490;23.506;2022-11-03T15:21:24;6.70;99.90
3478;DHT22;37937;61.490;23.506;2022-11-03T15:23:50;6.70;99.90
3478;DHT22;37937;61.490;23.506;2022-11-03T15:26:15;6.70;99.90
3478;DHT22;37937;61.490;23.506;2022-11-03T15:28:42;6.70;99.90
3478;DHT22;37937;61.490;23.506;2022-11-03T15:31:08;6.70;99.90
3478;DHT22;37937;61.490;23.506;2022-11-03T15:33:33;6.80;99.90
3478;DHT22;37937;61.490;23.506;2022-11-03T15:35:59;6.80;99.90
3478;DHT22;37937;61.490;23.506;2022-11-03T15:38:25;6.70;99.90
3478;DHT22;37937;61.490;23.506;2022-11-03T15:40:51;6.70;99.90
3478;DHT22;37937;61.490;23.506;2022-11-03T15:43:16;6.60;99.90
3478;DHT22;37937;61.490;23.506;2022-11-03T15:45:42;6.70;99.90
3478;DHT22;37937;61.490;23.506;2022-11-03T15:48:08;6.70;99.90
3478;DHT22;37937;61.490;23.506;2022-11-03T15:50:33;6.70;99.90
3478;DHT22;37937;61.490;23.506;2022-11-03T15:52:59;6.70;99.90
3478;DHT22;37937;61.490;23.506;2022-11-03T15:55:25;6.70;99.90
3478;DHT22;37937;61.490;23.506;2022-11-03T15:57:51;6.70;99.90
3478;DHT22;37937;61.490;23.506;2022-11-03T16:00:16;6.70;99.90
3478;DHT22;37937;61.490;23.506;2022-11-03T16:02:45;6.80;99.90
3478;DHT22;37937;61.490;23.506;2022-11-03T16:05:12;6.70;99.90
3478;DHT22;37937;61.490;23.506;2022-11-03T16:07:38;6.70;99.90
3478;DHT22;37937;61.490;23.506;2022-11-03T16:10:04;6.70;99.90
3478;DHT22;37937;61.490;23.506;2022-11-03T16:12:30;6.70;99.90
3478;DHT22;37937;61.490;23.506;2022-11-03T16:14:55;6.70;99.90
3478;DHT22;37937;61.490;23.506;2022-11-03T16:17:21;6.70;99.90
3478;DHT22;37937;61.490;23.506;2022-11-03T16:19:47;6.70;99.90
3478;DHT22;37937;61.490;23.506;2022-11-03T16:22:13;6.70;99.90
3478;DHT22;37937;61.490;23.506;2022-11-03T16:24:39;6.70;99.90
3478;DHT22;37937;61.490;23.506;2022-11-03T16:27:06;6.70;99.90
3478;DHT22;37937;61.490;23.506;2022-11-03T16:29:31;6.70;99.90
3478;DHT22;37937;61.490;23.506;2022-11-03T16:31:57;6.70;99.90
3478;DHT22;37937;61.490;23.506;2022-11-03T16:34:23;6.70;99.90
3478;DHT22;37937;61.490;23.506;2022-11-03T16:36:49;6.70;99.90